Terminal Aerodrome Forecast
Issued by NWS Dodge City, KS

Home | Current Version | Previous Version | Text Only | Print | Product List | Glossary On
Versions: 1 2 3 4 5 6 7 8 9 10 11 12 13 14 15 16 17 18 19 20
000
FTUS43 KDDC 302321
TAFDDC
TAF
KDDC 302321Z 3100/3124 17011KT P6SM SCT250
     FM311000 19011KT P6SM FEW250 WS020/22040KT
     FM311200 19009KT P6SM FEW250
     FM311600 21013KT P6SM FEW250=

USA.gov is the U.S. government's official web portal to all federal, state and local government web resources and services.